Time;durP1;ratioP1;P1;durP2;ratioP2;P2;SDS_P1;SDS_P2;PMS_P1;PMS_P2;Temp;Humidity;BMP_temperature;BMP_pressure;BME280_temperature;BME280_humidity;BME280_pressure;Samples;Min_cycle;Max_cycle;Signal;HPM_P1;HPM_P2
2023/03/11 00:00:27;;;;;;;6.32;2.03;;;;;;;9.00;100.00;91370.81;5055720;28;20049;-72
2023/03/11 00:02:56;;;;;;;5.40;1.83;;;;;;;9.03;100.00;91378.03;5069544;28;20048;-73
2023/03/11 00:05:25;;;;;;;8.57;2.13;;;;;;;8.72;100.00;91372.66;5069078;28;20522;-71
2023/03/11 00:07:53;;;;;;;7.50;2.58;;;;;;;8.67;100.00;91363.91;5066748;28;20098;-71
2023/03/11 00:10:21;;;;;;;10.93;3.67;;;;;;;8.69;100.00;91367.00;5068636;28;20090;-71
2023/03/11 00:12:49;;;;;;;8.35;3.53;;;;;;;8.68;100.00;91368.03;5068924;28;20113;-71
2023/03/11 00:15:16;;;;;;;8.15;2.28;;;;;;;8.66;100.00;91361.59;5068901;28;20451;-71
2023/03/11 00:17:43;;;;;;;9.52;2.97;;;;;;;8.66;100.00;91352.13;5068656;28;20041;-71
2023/03/11 00:20:18;;;;;;;8.75;2.10;;;;;;;8.46;100.00;91355.25;5068496;28;20052;-71
2023/03/11 00:22:45;;;;;;;11.70;1.98;;;;;;;8.43;100.00;91355.75;5068665;28;20044;-71
2023/03/11 00:25:13;;;;;;;4.53;1.15;;;;;;;8.41;100.00;91358.56;5068602;28;20580;-71
2023/03/11 00:27:40;;;;;;;4.70;1.85;;;;;;;8.43;100.00;91351.41;5068767;28;20051;-71
2023/03/11 00:30:10;;;;;;;3.17;1.20;;;;;;;8.44;100.00;91354.72;5068109;28;20546;-71
2023/03/11 00:32:36;;;;;;;7.15;1.70;;;;;;;8.46;100.00;91344.25;5068421;28;20857;-71
2023/03/11 00:35:04;;;;;;;5.32;1.35;;;;;;;8.36;100.00;91345.72;5068588;28;20110;-71
2023/03/11 00:37:30;;;;;;;3.08;1.50;;;;;;;8.42;100.00;91347.28;5068302;28;20634;-71
2023/03/11 00:39:57;;;;;;;3.83;1.38;;;;;;;8.47;100.00;91348.34;5068795;28;20098;-71
2023/03/11 00:42:24;;;;;;;4.68;1.40;;;;;;;8.39;100.00;91336.78;5068586;28;20110;-71
2023/03/11 00:44:53;;;;;;;7.55;2.50;;;;;;;8.29;100.00;91312.63;5068920;28;20535;-71
2023/03/11 00:47:21;;;;;;;6.38;1.70;;;;;;;8.69;100.00;91345.75;5069128;28;20045;-71
2023/03/11 00:49:48;;;;;;;5.97;2.50;;;;;;;8.79;100.00;91350.94;5068152;28;20451;-71
2023/03/11 00:52:14;;;;;;;7.22;3.15;;;;;;;8.85;100.00;91344.09;5068568;28;20037;-72
2023/03/11 00:54:41;;;;;;;8.70;3.92;;;;;;;8.92;100.00;91336.19;5068251;28;20102;-72
2023/03/11 00:57:08;;;;;;;9.20;3.35;;;;;;;9.00;100.00;91340.88;5069084;28;20041;-72
2023/03/11 00:59:35;;;;;;;6.43;2.95;;;;;;;9.06;100.00;91345.00;5068554;28;20102;-72
2023/03/11 01:02:01;;;;;;;6.10;3.00;;;;;;;9.14;100.00;91343.00;5068817;28;20078;-72
2023/03/11 01:04:30;;;;;;;6.50;2.65;;;;;;;9.18;100.00;91339.72;5069137;28;20127;-72
2023/03/11 01:06:57;;;;;;;8.15;2.65;;;;;;;9.25;100.00;91328.47;5068926;28;20102;-72
2023/03/11 01:09:23;;;;;;;4.57;2.25;;;;;;;9.28;100.00;91322.84;5068161;28;20552;-72
2023/03/11 01:11:50;;;;;;;5.88;2.75;;;;;;;9.30;100.00;91315.69;5068895;28;20049;-72
2023/03/11 01:14:17;;;;;;;3.22;1.80;;;;;;;9.21;100.00;91325.59;5068173;28;20495;-72
2023/03/11 01:16:45;;;;;;;3.00;1.40;;;;;;;9.21;100.00;91310.22;5068394;28;20044;-72
2023/03/11 01:19:11;;;;;;;3.63;1.73;;;;;;;9.14;100.00;91295.09;5068162;28;20508;-72
2023/03/11 01:21:41;;;;;;;2.45;1.23;;;;;;;9.10;100.00;91291.50;5069772;28;20098;-72
2023/03/11 01:24:08;;;;;;;2.53;1.50;;;;;;;9.03;100.00;91278.91;5072272;28;20084;-72
2023/03/11 01:26:35;;;;;;;2.78;1.60;;;;;;;8.98;100.00;91281.44;5072320;28;20488;-72
2023/03/11 01:29:02;;;;;;;3.97;2.58;;;;;;;8.98;100.00;91283.97;5072635;28;20048;-72
2023/03/11 01:31:29;;;;;;;3.83;2.17;;;;;;;8.95;100.00;91282.69;5072482;28;20408;-71
2023/03/11 01:33:55;;;;;;;3.58;2.40;;;;;;;8.88;100.00;91279.59;5072315;28;20098;-71
2023/03/11 01:36:22;;;;;;;5.18;2.78;;;;;;;8.90;100.00;91282.69;5067466;28;20091;-71
2023/03/11 01:38:50;;;;;;;4.35;2.17;;;;;;;8.81;100.00;91272.09;5068076;28;20137;-71
2023/03/11 01:41:17;;;;;;;5.43;2.42;;;;;;;8.82;100.00;91278.78;5072180;28;20047;-71
2023/03/11 01:43:51;;;;;;;3.70;2.10;;;;;;;8.80;100.00;91280.81;5071723;28;20504;-71
2023/03/11 01:46:20;;;;;;;4.22;2.00;;;;;;;8.81;100.00;91284.91;5071994;28;20040;-72
2023/03/11 01:48:48;;;;;;;4.10;2.45;;;;;;;8.78;100.00;91282.84;5071783;28;20063;-72
2023/03/11 01:51:19;;;;;;;4.05;2.08;;;;;;;8.77;100.00;91291.56;5072286;28;20052;-71
2023/03/11 01:53:46;;;;;;;3.97;1.30;;;;;;;8.72;100.00;91288.97;5072114;28;20080;-72
2023/03/11 01:56:15;;;;;;;3.55;1.50;;;;;;;8.64;100.00;91281.72;5072265;28;20044;-72
2023/03/11 01:58:45;;;;;;;3.92;1.52;;;;;;;8.65;100.00;91293.50;5071666;28;20114;-71
2023/03/11 02:01:12;;;;;;;8.38;1.90;;;;;;;8.63;100.00;91309.13;5071727;28;20497;-71
2023/03/11 02:03:40;;;;;;;5.03;1.30;;;;;;;8.60;100.00;91307.03;5045525;28;20053;-71
2023/03/11 02:06:10;;;;;;;2.50;1.05;;;;;;;8.69;100.00;91318.38;5071717;28;20052;-72
2023/03/11 02:08:38;;;;;;;4.63;1.70;;;;;;;8.63;100.00;91308.34;5071649;28;20492;-72
2023/03/11 02:11:08;;;;;;;6.40;1.45;;;;;;;8.50;100.00;91301.81;5071364;28;20049;-71
2023/03/11 02:13:37;;;;;;;4.63;1.70;;;;;;;8.53;100.00;91329.50;5071571;28;20063;-72
2023/03/11 02:16:05;;;;;;;6.72;1.70;;;;;;;7.83;100.00;91231.16;5071015;28;20515;-72
2023/03/11 02:18:32;;;;;;;3.88;1.70;;;;;;;8.45;100.00;91322.22;5071858;28;20105;-71
2023/03/11 02:21:08;;;;;;;6.50;1.42;;;;;;;8.40;100.00;91320.41;5071590;28;20055;-71
2023/03/11 02:23:43;;;;;;;4.07;1.80;;;;;;;8.38;100.00;91336.00;5071920;28;20045;-71
2023/03/11 02:26:14;;;;;;;;;;;;;;;8.35;100.00;91344.16;5071450;28;20390;-72
2023/03/11 02:28:43;;;;;;;4.90;1.67;;;;;;;8.34;100.00;91342.59;5068898;28;19964;-72
2023/03/11 02:31:10;;;;;;;2.90;1.35;;;;;;;8.25;100.00;91352.50;5060106;28;20394;-72
2023/03/11 02:33:37;;;;;;;5.68;1.80;;;;;;;8.34;100.00;91355.38;5070133;28;20048;-72
2023/03/11 02:36:05;;;;;;;4.25;2.10;;;;;;;8.37;100.00;91351.56;5057512;28;20041;-72
2023/03/11 02:38:32;;;;;;;5.10;1.70;;;;;;;8.36;100.00;91352.59;5070499;28;20501;-72
2023/03/11 02:41:00;;;;;;;4.18;1.83;;;;;;;8.45;100.00;91358.06;5069307;28;20056;-72
2023/03/11 02:43:35;;;;;;;4.53;2.00;;;;;;;8.43;100.00;91351.41;5070044;28;20052;-73
2023/03/11 02:46:08;;;;;;;8.85;2.15;;;;;;;8.43;100.00;91351.41;5071068;28;20040;-72
2023/03/11 02:48:36;;;;;;;7.45;2.13;;;;;;;8.46;100.00;91352.69;5071276;28;20071;-72
2023/03/11 02:51:03;;;;;;;4.65;2.60;;;;;;;8.22;100.00;91313.84;5071105;28;20430;-72
2023/03/11 02:53:34;;;;;;;4.30;1.77;;;;;;;8.40;100.00;91351.09;5070950;28;20076;-72
2023/03/11 02:56:01;;;;;;;3.95;1.80;;;;;;;8.42;100.00;91346.50;5070394;28;20045;-72
2023/03/11 02:58:28;;;;;;;2.53;1.40;;;;;;;8.36;100.00;91345.72;5071411;28;20127;-72
2023/03/11 03:00:54;;;;;;;3.90;1.55;;;;;;;8.05;100.00;91290.94;5070915;28;20094;-72
2023/03/11 03:03:22;;;;;;;3.25;1.65;;;;;;;8.27;100.00;91330.03;5070881;28;20097;-72
2023/03/11 03:05:49;;;;;;;2.40;1.30;;;;;;;8.29;100.00;91335.66;5070704;28;20381;-72
2023/03/11 03:08:16;;;;;;;2.85;1.52;;;;;;;8.26;100.00;91338.72;5070725;28;20094;-72
2023/03/11 03:10:43;;;;;;;2.42;1.10;;;;;;;8.18;100.00;91334.03;5070396;28;20488;-72
2023/03/11 03:13:09;;;;;;;2.75;1.17;;;;;;;8.19;100.00;91335.56;5070807;28;20048;-72
2023/03/11 03:15:36;;;;;;;1.67;1.00;;;;;;;8.17;100.00;91327.38;5069856;28;20053;-72
2023/03/11 03:18:03;;;;;;;2.15;0.80;;;;;;;8.18;100.00;91338.38;5070939;28;20098;-72
2023/03/11 03:20:31;;;;;;;1.73;0.80;;;;;;;8.13;100.00;91341.63;5070281;28;20436;-72
2023/03/11 03:22:58;;;;;;;2.00;1.02;;;;;;;8.15;100.00;91347.31;5070348;28;20500;-72
2023/03/11 03:25:25;;;;;;;2.58;0.93;;;;;;;8.16;100.00;91348.84;5069856;28;20052;-72
2023/03/11 03:27:51;;;;;;;1.92;1.17;;;;;;;8.18;100.00;91346.81;5070303;28;20052;-71
2023/03/11 03:30:18;;;;;;;1.83;0.90;;;;;;;8.11;100.00;91336.75;5070153;28;20101;-71
2023/03/11 03:32:45;;;;;;;2.47;0.60;;;;;;;8.16;100.00;91343.72;5070424;28;20451;-71
2023/03/11 03:35:12;;;;;;;2.63;0.90;;;;;;;8.15;100.00;91340.38;5069918;28;20045;-71
2023/03/11 03:37:40;;;;;;;1.63;0.93;;;;;;;8.18;100.00;91339.13;5070437;28;20098;-72
2023/03/11 03:40:08;;;;;;;2.78;1.35;;;;;;;8.18;100.00;91343.50;5069464;28;20405;-72
2023/03/11 03:42:36;;;;;;;1.92;0.90;;;;;;;8.19;100.00;91338.13;5070061;28;20051;-72
2023/03/11 03:45:03;;;;;;;1.95;0.95;;;;;;;8.21;100.00;91348.13;5068741;28;20049;-72
2023/03/11 03:47:31;;;;;;;2.45;1.23;;;;;;;8.23;100.00;91344.31;5069814;28;20052;-73
2023/03/11 03:49:58;;;;;;;2.33;1.20;;;;;;;8.24;100.00;91348.41;5069710;28;20044;-72
2023/03/11 03:52:24;;;;;;;2.38;1.17;;;;;;;8.24;100.00;91339.97;5069599;28;20061;-72
2023/03/11 03:54:52;;;;;;;3.47;1.65;;;;;;;8.25;100.00;91336.41;5068972;28;20048;-72
2023/03/11 03:57:19;;;;;;;4.03;2.03;;;;;;;8.27;100.00;91344.59;5069870;28;20048;-72
2023/03/11 03:59:46;;;;;;;4.45;2.10;;;;;;;8.28;100.00;91346.91;5069122;28;20041;-72
2023/03/11 04:02:12;;;;;;;3.58;1.85;;;;;;;8.29;100.00;91345.13;5069443;28;20094;-72
2023/03/11 04:04:39;;;;;;;3.08;1.80;;;;;;;8.32;100.00;91346.44;5069673;28;20102;-72
2023/03/11 04:07:06;;;;;;;4.43;2.05;;;;;;;8.29;100.00;91347.69;5069089;28;20052;-72
2023/03/11 04:09:34;;;;;;;2.97;1.70;;;;;;;8.24;100.00;91345.09;5069259;28;20550;-73
2023/03/11 04:12:02;;;;;;;2.33;1.17;;;;;;;8.14;100.00;91331.19;5069447;28;20502;-72
2023/03/11 04:14:29;;;;;;;2.28;1.20;;;;;;;8.24;100.00;91350.97;5069111;28;20507;-72
2023/03/11 04:16:56;;;;;;;2.20;1.33;;;;;;;8.27;100.00;91347.94;5069314;28;20044;-72
2023/03/11 04:19:23;;;;;;;2.80;1.08;;;;;;;8.25;100.00;91351.75;5069472;28;20044;-73
2023/03/11 04:21:50;;;;;;;1.92;0.98;;;;;;;8.24;100.00;91353.50;5069004;28;20041;-72
2023/03/11 04:24:17;;;;;;;1.83;0.80;;;;;;;8.22;100.00;91353.00;5069530;28;20057;-72
2023/03/11 04:26:44;;;;;;;2.33;0.50;;;;;;;8.25;100.00;91347.38;5064924;28;20497;-72
2023/03/11 04:29:12;;;;;;;1.85;0.60;;;;;;;8.16;100.00;91334.25;5069553;28;20044;-71
2023/03/11 04:31:39;;;;;;;1.33;0.57;;;;;;;8.23;100.00;91349.41;5069320;28;20142;-72
2023/03/11 04:34:06;;;;;;;2.38;0.75;;;;;;;8.23;100.00;91358.88;5069213;28;20040;-72
2023/03/11 04:36:33;;;;;;;1.63;0.77;;;;;;;8.19;100.00;91352.72;5069154;28;20117;-72
2023/03/11 04:38:59;;;;;;;4.25;1.10;;;;;;;8.17;100.00;91345.28;5068975;28;20044;-71
2023/03/11 04:41:26;;;;;;;3.58;1.83;;;;;;;8.14;100.00;91351.63;5068401;28;20497;-72
2023/03/11 04:43:53;;;;;;;7.32;3.28;;;;;;;8.12;100.00;91343.44;5068979;28;20098;-72
2023/03/11 04:46:21;;;;;;;7.82;3.20;;;;;;;8.10;100.00;91345.44;5068378;28;20125;-72
2023/03/11 04:48:47;;;;;;;5.18;2.58;;;;;;;8.12;100.00;91343.44;5068556;28;20049;-71
2023/03/11 04:51:14;;;;;;;4.05;2.42;;;;;;;8.11;100.00;91349.53;5069049;28;20048;-71
2023/03/11 04:53:41;;;;;;;3.92;1.80;;;;;;;8.12;100.00;91356.22;5068661;28;20044;-71
2023/03/11 04:56:08;;;;;;;2.58;1.30;;;;;;;8.14;100.00;91351.63;5069010;28;20102;-72
2023/03/11 04:58:34;;;;;;;2.45;1.50;;;;;;;8.18;100.00;91359.59;5072859;28;20049;-72
2023/03/11 05:01:01;;;;;;;2.47;1.00;;;;;;;8.23;100.00;91364.75;5072997;28;20045;-72
2023/03/11 05:03:29;;;;;;;1.80;1.00;;;;;;;8.21;100.00;91360.91;5072341;28;20485;-73
2023/03/11 05:05:56;;;;;;;2.15;1.20;;;;;;;8.27;100.00;91375.28;5072618;28;20094;-72
2023/03/11 05:08:23;;;;;;;2.45;1.42;;;;;;;8.29;100.00;91375.84;5072665;28;20045;-73
2023/03/11 05:10:52;;;;;;;2.97;1.80;;;;;;;8.29;100.00;91374.03;5072348;28;20488;-72
2023/03/11 05:13:18;;;;;;;2.72;1.20;;;;;;;8.33;100.00;91392.22;5072457;28;20131;-72
2023/03/11 05:15:46;;;;;;;2.92;1.95;;;;;;;8.11;100.00;91357.22;5072841;28;20056;-72
2023/03/11 05:18:13;;;;;;;6.47;1.90;;;;;;;8.34;100.00;91387.91;5072378;28;20534;-72
2023/03/11 05:20:41;;;;;;;3.67;1.90;;;;;;;8.41;100.00;91396.13;5072357;28;20543;-72
2023/03/11 05:23:07;;;;;;;8.65;4.00;;;;;;;8.42;100.00;91400.25;5072662;28;20044;-72
2023/03/11 05:25:35;;;;;;;6.82;3.80;;;;;;;8.41;100.00;91396.13;5072585;28;20501;-72
2023/03/11 05:28:02;;;;;;;3.90;2.03;;;;;;;8.32;100.00;91383.00;5072815;28;20049;-72
2023/03/11 05:30:28;;;;;;;4.40;1.73;;;;;;;8.34;100.00;91382.78;5056643;28;20564;-72
2023/03/11 05:32:56;;;;;;;3.95;2.00;;;;;;;8.49;100.00;91405.19;5069927;28;20049;-72
2023/03/11 05:35:22;;;;;;;3.00;1.67;;;;;;;8.48;100.00;91401.84;5067235;28;20050;-72
2023/03/11 05:37:52;;;;;;;3.03;1.63;;;;;;;8.44;100.00;91398.22;5067182;28;20138;-72
2023/03/11 05:40:19;;;;;;;2.75;1.20;;;;;;;8.47;100.00;91402.09;5070006;28;20076;-72
2023/03/11 05:42:46;;;;;;;3.45;1.70;;;;;;;8.47;100.00;91407.22;5071403;28;20090;-72
2023/03/11 05:45:13;;;;;;;4.78;1.50;;;;;;;8.48;100.00;91419.00;5071859;28;20040;-73
2023/03/11 05:47:41;;;;;;;3.83;1.90;;;;;;;8.48;100.00;91419.00;5070938;28;20048;-72
2023/03/11 05:50:09;;;;;;;6.03;2.15;;;;;;;8.37;100.00;91406.09;5072046;28;20044;-72
2023/03/11 05:52:35;;;;;;;4.40;2.10;;;;;;;8.45;100.00;91417.69;5071839;28;20201;-73
2023/03/11 05:55:04;;;;;;;6.45;3.72;;;;;;;8.41;100.00;91425.06;5072600;28;20056;-72
2023/03/11 05:57:31;;;;;;;11.65;6.80;;;;;;;8.40;100.00;91436.31;5069687;28;20048;-71
2023/03/11 05:59:57;;;;;;;13.27;8.77;;;;;;;8.43;100.00;91433.25;5064098;28;20492;-72
2023/03/11 06:02:24;;;;;;;8.50;6.50;;;;;;;8.45;100.00;91438.16;5071513;28;20052;-72
2023/03/11 06:04:51;;;;;;;9.90;5.47;;;;;;;8.40;100.00;91438.09;5056472;28;20132;-72
2023/03/11 06:07:18;;;;;;;10.48;6.30;;;;;;;8.43;100.00;91443.50;5071794;28;20040;-72
2023/03/11 06:09:44;;;;;;;5.30;3.45;;;;;;;8.42;100.00;91438.63;5070845;28;20041;-72
2023/03/11 06:12:12;;;;;;;3.15;1.60;;;;;;;8.43;100.00;91443.50;5071765;28;20466;-72
2023/03/11 06:14:39;;;;;;;3.28;1.77;;;;;;;8.46;100.00;91449.94;5072044;28;20432;-72
2023/03/11 06:17:06;;;;;;;4.00;2.00;;;;;;;8.44;100.00;91446.84;5071210;28;20049;-72
2023/03/11 06:19:33;;;;;;;3.90;2.33;;;;;;;8.43;100.00;91440.19;5071702;28;20554;-72
2023/03/11 06:22:00;;;;;;;4.55;2.45;;;;;;;8.28;100.00;91421.09;5071492;28;20094;-72
2023/03/11 06:24:27;;;;;;;4.55;2.38;;;;;;;8.49;100.00;91458.91;5062829;28;20060;-72
2023/03/11 06:26:54;;;;;;;3.85;2.45;;;;;;;8.55;100.00;91463.88;5066696;28;20040;-72
2023/03/11 06:29:23;;;;;;;5.32;2.95;;;;;;;8.54;100.00;91457.22;5070728;28;20049;-72
2023/03/11 06:31:50;;;;;;;6.85;4.20;;;;;;;8.59;100.00;91456.50;5070547;28;20416;-73
2023/03/11 06:34:16;;;;;;;8.95;5.40;;;;;;;8.62;100.00;91458.59;5070854;28;20044;-73
2023/03/11 06:36:43;;;;;;;8.93;5.10;;;;;;;8.65;100.00;91460.66;5070284;28;20106;-72
2023/03/11 06:39:12;;;;;;;7.40;4.50;;;;;;;8.67;100.00;91458.59;5068608;28;20048;-73
2023/03/11 06:41:39;;;;;;;7.82;4.50;;;;;;;8.66;100.00;91461.44;5070568;28;20045;-73
2023/03/11 06:44:06;;;;;;;7.90;5.22;;;;;;;8.67;100.00;91447.63;5070542;28;20044;-73
2023/03/11 06:46:34;;;;;;;7.50;4.20;;;;;;;8.68;100.00;91449.94;5070708;28;20056;-73
2023/03/11 06:49:01;;;;;;;10.75;6.10;;;;;;;8.73;100.00;91454.31;5071076;28;20048;-72
2023/03/11 06:51:28;;;;;;;10.68;5.70;;;;;;;8.74;100.00;91457.66;5070935;28;20053;-72
2023/03/11 06:53:55;;;;;;;6.97;4.57;;;;;;;8.76;100.00;91464.09;5071145;28;20408;-72
2023/03/11 06:56:23;;;;;;;5.22;3.45;;;;;;;8.77;100.00;91457.94;5071018;28;20428;-72
2023/03/11 06:58:50;;;;;;;6.78;4.13;;;;;;;8.80;100.00;91460.00;5070853;28;20041;-73
2023/03/11 07:01:19;;;;;;;7.68;4.35;;;;;;;8.85;100.00;91461.88;5069943;28;20086;-72
2023/03/11 07:03:48;;;;;;;8.73;5.38;;;;;;;8.90;100.00;91464.47;5069914;28;20048;-73
2023/03/11 07:06:17;;;;;;;8.13;5.03;;;;;;;8.96;100.00;91465.28;5070369;28;20074;-73
2023/03/11 07:08:44;;;;;;;9.00;5.50;;;;;;;9.02;100.00;91459.19;5065754;28;20105;-72
2023/03/11 07:11:14;;;;;;;6.93;4.60;;;;;;;9.02;100.00;91459.19;5070280;28;20041;-72
2023/03/11 07:13:41;;;;;;;6.80;4.20;;;;;;;9.13;100.00;91460.06;5070555;28;20086;-71
2023/03/11 07:16:11;;;;;;;8.30;4.85;;;;;;;9.07;100.00;91438.75;5070481;28;20049;-72
2023/03/11 07:18:38;;;;;;;9.00;5.07;;;;;;;9.19;100.00;91466.78;5070908;28;20051;-72
2023/03/11 07:21:08;;;;;;;7.25;4.00;;;;;;;9.24;100.00;91463.47;5069912;28;20048;-72
2023/03/11 07:23:35;;;;;;;5.30;2.95;;;;;;;9.33;100.00;91468.91;5070283;28;20098;-72
2023/03/11 07:26:02;;;;;;;5.40;2.40;;;;;;;9.36;100.00;91468.44;5070173;28;20098;-72
2023/03/11 07:28:29;;;;;;;3.85;1.83;;;;;;;9.41;100.00;91462.56;5070226;28;20094;-72
2023/03/11 07:30:56;;;;;;;4.90;1.52;;;;;;;9.35;100.00;91442.03;5070271;28;20045;-72
2023/03/11 07:33:23;;;;;;;2.38;1.27;;;;;;;9.51;100.00;91443.91;5069995;28;20097;-72
2023/03/11 07:35:50;;;;;;;2.70;1.10;;;;;;;9.66;100.00;91448.38;5070077;28;20052;-71
2023/03/11 07:38:19;;;;;;;2.72;0.90;;;;;;;9.76;100.00;91451.78;5058859;28;20095;-71
2023/03/11 07:40:46;;;;;;;4.18;1.35;;;;;;;9.92;100.00;91453.66;5070292;28;20493;-72
2023/03/11 07:43:13;;;;;;;3.30;0.80;;;;;;;10.07;100.00;91450.38;5056442;28;20103;-72
2023/03/11 07:45:39;;;;;;;3.60;0.50;;;;;;;10.18;100.00;91448.66;5069800;28;20048;-72
2023/03/11 07:48:06;;;;;;;3.40;0.60;;;;;;;10.16;100.00;91429.16;5069141;28;20087;-71
2023/03/11 07:50:33;;;;;;;3.05;1.15;;;;;;;10.26;100.00;91446.38;5069145;28;20166;-72
2023/03/11 07:53:00;;;;;;;2.55;1.20;;;;;;;10.20;100.00;91413.22;5069763;28;20045;-71
2023/03/11 07:55:28;;;;;;;2.67;1.30;;;;;;;10.36;100.00;91432.78;5066113;28;20053;-71
2023/03/11 07:57:55;;;;;;;6.05;1.33;;;;;;;10.53;100.00;91427.50;5070061;28;20427;-71
2023/03/11 08:00:22;;;;;;;3.45;0.70;;;;;;;10.56;100.00;91426.22;5069746;28;20048;-71
2023/03/11 08:02:49;;;;;;;4.03;1.50;;;;;;;10.77;100.00;91418.53;5069515;28;20497;-71
2023/03/11 08:05:17;;;;;;;2.00;1.20;;;;;;;11.04;100.00;91418.31;5069887;28;20109;-71
2023/03/11 08:07:44;;;;;;;3.17;0.80;;;;;;;11.18;100.00;91418.56;5069493;28;20052;-71
2023/03/11 08:10:11;;;;;;;2.05;0.77;;;;;;;11.42;100.00;91412.13;5069435;28;20090;-71
2023/03/11 08:12:39;;;;;;;2.15;0.60;;;;;;;11.58;100.00;91402.59;5069819;28;20048;-71
2023/03/11 08:15:08;;;;;;;1.33;0.70;;;;;;;11.66;100.00;91380.72;5069645;28;20041;-71
2023/03/11 08:17:34;;;;;;;2.95;1.00;;;;;;;11.75;100.00;91377.34;5069800;28;20052;-71
2023/03/11 08:20:01;;;;;;;2.80;1.00;;;;;;;11.76;100.00;91380.69;5064117;28;20095;-71
2023/03/11 08:22:28;;;;;;;3.10;1.20;;;;;;;11.83;100.00;91362.41;5061400;28;20045;-71
2023/03/11 08:24:55;;;;;;;2.00;0.65;;;;;;;11.82;100.00;91346.22;5069325;28;20109;-71
2023/03/11 08:27:22;;;;;;;4.20;1.10;;;;;;;12.07;100.00;91342.00;5069317;28;20056;-71
2023/03/11 08:29:50;;;;;;;1.67;0.80;;;;;;;12.32;100.00;91353.22;5069168;28;20053;-71
2023/03/11 08:32:16;;;;;;;3.22;1.17;;;;;;;12.46;100.00;91342.31;5067466;28;20114;-71
2023/03/11 08:34:43;;;;;;;4.15;1.30;;;;;;;12.72;100.00;91332.63;5069030;28;20103;-71
2023/03/11 08:37:10;;;;;;;5.20;1.67;;;;;;;12.93;100.00;91340.97;5064871;28;20076;-71
2023/03/11 08:39:37;;;;;;;1.60;0.68;;;;;;;13.08;100.00;91337.50;5067510;28;20048;-71
2023/03/11 08:42:06;;;;;;;5.30;1.52;;;;;;;13.18;100.00;91338.44;5068716;28;20048;-71
2023/03/11 08:44:33;;;;;;;3.33;1.40;;;;;;;13.27;100.00;91325.72;5069052;28;20090;-72
2023/03/11 08:47:02;;;;;;;4.15;1.70;;;;;;;13.25;100.00;91314.91;5069083;28;20094;-71
2023/03/11 08:49:29;;;;;;;3.53;1.63;;;;;;;13.29;100.00;91318.50;5068596;28;20040;-71
2023/03/11 08:51:55;;;;;;;3.47;1.90;;;;;;;13.24;100.00;91311.56;5056202;28;20136;-71
2023/03/11 08:54:22;;;;;;;27.75;18.35;;;;;;;13.21;100.00;91304.38;5068942;28;20037;-71
2023/03/11 08:56:49;;;;;;;14.98;8.52;;;;;;;13.12;100.00;91314.53;5064734;28;20451;-71
2023/03/11 08:59:15;;;;;;;8.25;4.80;;;;;;;12.95;100.00;91307.97;5068881;28;20094;-72
2023/03/11 09:01:42;;;;;;;11.52;6.93;;;;;;;12.86;100.00;91308.81;5068170;28;20101;-71
2023/03/11 09:04:10;;;;;;;13.02;6.93;;;;;;;12.82;100.00;91306.00;5068977;28;20090;-71
2023/03/11 09:06:37;;;;;;;13.38;7.38;;;;;;;12.85;100.00;91309.84;5069087;28;20070;-71
2023/03/11 09:09:04;;;;;;;11.57;6.28;;;;;;;12.86;100.00;91317.31;5061573;28;20584;-71
2023/03/11 09:11:31;;;;;;;5.47;2.47;;;;;;;13.01;100.00;91307.91;5066509;28;20040;-71
2023/03/11 09:13:57;;;;;;;4.35;1.50;;;;;;;13.15;100.00;91295.16;5068597;28;20102;-71
2023/03/11 09:16:25;;;;;;;8.20;5.00;;;;;;;13.26;98.84;91294.03;5068707;28;20052;-71
2023/03/11 09:18:52;;;;;;;4.72;4.25;;;;;;;13.34;99.91;91308.88;5068219;28;20493;-71
2023/03/11 09:21:20;;;;;;;5.55;2.28;;;;;;;13.51;99.08;91305.13;5068437;28;20041;-71
2023/03/11 09:23:47;;;;;;;2.38;1.40;;;;;;;13.64;97.38;91316.63;5068338;28;20049;-71
2023/03/11 09:26:15;;;;;;;10.20;9.30;;;;;;;13.86;94.32;91302.44;5068664;28;20044;-71
2023/03/11 09:28:42;;;;;;;4.18;1.50;;;;;;;13.92;87.00;91309.06;5068487;28;20044;-71
2023/03/11 09:31:09;;;;;;;2.38;1.30;;;;;;;14.07;89.92;91297.03;5048430;28;20094;-71
2023/03/11 09:33:38;;;;;;;2.15;0.85;;;;;;;14.22;90.70;91304.56;5065128;28;20041;-71
2023/03/11 09:36:05;;;;;;;6.95;4.28;;;;;;;14.32;91.23;91300.31;5058511;28;20136;-71
2023/03/11 09:38:34;;;;;;;15.10;10.43;;;;;;;14.11;89.11;91267.78;5057180;28;20086;-71
2023/03/11 09:41:06;;;;;;;4.55;2.83;;;;;;;14.09;87.21;91294.91;5068883;28;20126;-71
2023/03/11 09:43:49;;;;;;;7.15;2.72;;;;;;;14.10;87.80;91302.41;5070494;28;20464;-71
2023/03/11 09:46:37;;;;;;;6.07;1.45;;;;;;;13.58;84.34;91277.22;5072088;28;20105;-71
2023/03/11 09:49:15;;;;;;;1.35;0.60;;;;;;;13.62;80.71;91301.41;5071835;28;20922;-72
2023/03/11 09:51:51;;;;;;;4.78;1.85;;;;;;;13.75;85.31;91287.06;5071396;28;20036;-71
2023/03/11 09:54:20;;;;;;;9.57;3.47;;;;;;;13.66;86.84;91298.28;5072035;28;20114;-71
2023/03/11 09:56:46;;;;;;;6.60;1.60;;;;;;;13.46;83.95;91294.84;5070370;28;20131;-71
2023/03/11 09:59:19;;;;;;;7.60;2.83;;;;;;;13.56;85.26;91292.19;5072177;28;20090;-71
2023/03/11 10:01:48;;;;;;;4.07;1.63;;;;;;;13.54;83.04;91299.44;5072312;28;20435;-71
2023/03/11 10:04:19;;;;;;;4.60;1.17;;;;;;;13.09;85.57;91278.97;5072246;28;20059;-71
2023/03/11 10:06:47;;;;;;;5.70;1.42;;;;;;;13.25;86.34;91295.06;5071479;28;20044;-71
2023/03/11 10:09:29;;;;;;;4.40;1.52;;;;;;;13.07;88.53;91265.59;5071534;28;20094;-71
2023/03/11 10:12:07;;;;;;;3.25;1.20;;;;;;;13.20;85.80;91302.84;5063801;28;20114;-71
2023/03/11 10:14:50;;;;;;;6.18;2.70;;;;;;;13.07;83.93;91276.69;5071440;28;20040;-71
2023/03/11 10:17:34;;;;;;;4.45;1.00;;;;;;;13.17;81.93;91298.22;5071681;28;20098;-71
2023/03/11 10:20:07;;;;;;;7.18;1.70;;;;;;;13.18;86.80;91305.69;5071866;28;20044;-71
2023/03/11 10:22:41;;;;;;;5.63;1.15;;;;;;;13.13;80.09;91305.75;5071146;28;20055;-71
2023/03/11 10:25:14;;;;;;;3.33;0.70;;;;;;;13.15;83.02;91302.91;5071092;28;20049;-71
2023/03/11 10:27:46;;;;;;;2.13;0.70;;;;;;;12.99;82.30;91309.97;5071354;28;20040;-71
2023/03/11 10:30:23;;;;;;;11.15;4.72;;;;;;;13.09;84.64;91309.91;5071528;28;20055;-71
2023/03/11 10:32:54;;;;;;;11.45;5.07;;;;;;;13.05;84.00;91316.66;5071373;28;20094;-71
2023/03/11 10:35:23;;;;;;;5.60;1.83;;;;;;;12.88;85.59;91310.09;5064189;28;20041;-71
2023/03/11 10:37:54;;;;;;;9.25;3.05;;;;;;;12.94;86.05;91306.44;5053353;28;20060;-71
2023/03/11 10:40:28;;;;;;;17.35;6.85;;;;;;;13.14;87.52;91291.06;5070110;28;20048;-71
2023/03/11 10:42:58;;;;;;;11.82;5.28;;;;;;;13.18;85.40;91279.13;5071005;28;20044;-71
2023/03/11 10:45:25;;;;;;;8.88;4.40;;;;;;;13.37;84.62;91286.94;5045565;28;20044;-71
2023/03/11 10:47:52;;;;;;;6.30;2.97;;;;;;;13.46;85.82;91292.25;5071024;28;20090;-71
2023/03/11 10:50:20;;;;;;;13.57;4.68;;;;;;;13.60;85.25;91282.09;5071114;28;20378;-71
2023/03/11 10:53:05;;;;;;;4.80;2.08;;;;;;;13.72;82.90;91277.31;5070747;28;20066;-71
2023/03/11 10:55:33;;;;;;;12.18;4.35;;;;;;;13.74;81.71;91274.44;5063458;28;20554;-71
2023/03/11 10:58:12;;;;;;;32.88;9.15;;;;;;;13.78;83.04;91288.34;5068497;28;20101;-71
2023/03/11 11:00:38;;;;;;;49.30;19.80;;;;;;;13.75;82.69;91283.75;5070839;28;20463;-71
2023/03/11 11:03:12;;;;;;;6.85;3.20;;;;;;;13.69;81.19;91290.75;5070368;28;20570;-71
2023/03/11 11:05:39;;;;;;;6.47;2.85;;;;;;;13.60;82.20;91298.34;5070775;28;20450;-71
2023/03/11 11:08:08;;;;;;;4.50;1.77;;;;;;;13.36;80.06;91291.34;5070515;28;20040;-71
2023/03/11 11:10:37;;;;;;;13.05;5.20;;;;;;;13.40;79.93;91286.41;5069950;28;20134;-72
2023/03/11 11:13:18;;;;;;;11.15;5.30;;;;;;;13.47;79.40;91279.13;5070345;28;20090;-71
2023/03/11 11:15:56;;;;;;;15.20;5.70;;;;;;;13.55;81.80;91276.97;5070406;28;20037;-71
2023/03/11 11:18:26;;;;;;;16.38;6.00;;;;;;;13.67;79.84;91284.34;5070086;28;20101;-71
2023/03/11 11:20:56;;;;;;;31.73;11.73;;;;;;;13.76;80.43;91280.84;5070427;28;20066;-71
2023/03/11 11:23:27;;;;;;;7.03;2.72;;;;;;;13.82;80.06;91286.75;5069883;28;20078;-71
2023/03/11 11:26:00;;;;;;;12.52;5.20;;;;;;;13.99;78.17;91280.34;5070306;28;20550;-71
2023/03/11 11:28:28;;;;;;;20.63;7.85;;;;;;;14.03;77.97;91264.00;5070043;28;20041;-71
2023/03/11 11:30:57;;;;;;;15.93;5.97;;;;;;;14.05;79.21;91257.78;5070046;28;20106;-71
2023/03/11 11:33:33;;;;;;;4.53;2.03;;;;;;;14.09;76.22;91254.41;5069658;28;20159;-72
2023/03/11 11:36:02;;;;;;;;;;;;;;;14.25;76.59;91249.78;5070953;28;20078;-72